sensor_id;sensor_type;location;lat;lon;timestamp;P1;durP1;ratioP1;P2;durP2;ratioP2
1404;SDS011;697;51.114;6.542;2023-01-04T00:00:30;5.80;;;1.37;;
1404;SDS011;697;51.114;6.542;2023-01-04T00:02:57;5.80;;;1.20;;
1404;SDS011;697;51.114;6.542;2023-01-04T00:05:23;3.40;;;1.37;;
1404;SDS011;697;51.114;6.542;2023-01-04T00:07:50;4.20;;;1.53;;
1404;SDS011;697;51.114;6.542;2023-01-04T00:10:17;2.60;;;1.20;;
1404;SDS011;697;51.114;6.542;2023-01-04T00:12:43;3.83;;;1.33;;
1404;SDS011;697;51.114;6.542;2023-01-04T00:15:11;3.37;;;1.07;;
1404;SDS011;697;51.114;6.542;2023-01-04T00:17:38;4.37;;;1.70;;
1404;SDS011;697;51.114;6.542;2023-01-04T00:20:05;4.50;;;1.30;;
1404;SDS011;697;51.114;6.542;2023-01-04T00:22:32;5.93;;;1.50;;
1404;SDS011;697;51.114;6.542;2023-01-04T00:24:59;1.80;;;1.10;;
1404;SDS011;697;51.114;6.542;2023-01-04T00:27:26;2.13;;;1.20;;
1404;SDS011;697;51.114;6.542;2023-01-04T00:29:53;5.37;;;1.20;;
1404;SDS011;697;51.114;6.542;2023-01-04T00:32:21;6.20;;;1.30;;
1404;SDS011;697;51.114;6.542;2023-01-04T00:34:47;4.33;;;1.40;;
1404;SDS011;697;51.114;6.542;2023-01-04T00:37:14;3.30;;;1.13;;
1404;SDS011;697;51.114;6.542;2023-01-04T00:39:41;1.43;;;0.87;;
1404;SDS011;697;51.114;6.542;2023-01-04T00:42:07;3.57;;;1.13;;
1404;SDS011;697;51.114;6.542;2023-01-04T00:44:34;6.33;;;1.50;;
1404;SDS011;697;51.114;6.542;2023-01-04T00:47:01;4.10;;;1.00;;
1404;SDS011;697;51.114;6.542;2023-01-04T00:49:30;1.37;;;0.90;;
1404;SDS011;697;51.114;6.542;2023-01-04T00:51:57;3.13;;;1.00;;
1404;SDS011;697;51.114;6.542;2023-01-04T00:54:24;3.43;;;1.07;;
1404;SDS011;697;51.114;6.542;2023-01-04T00:56:51;4.03;;;1.20;;
1404;SDS011;697;51.114;6.542;2023-01-04T00:59:19;3.70;;;1.27;;
1404;SDS011;697;51.114;6.542;2023-01-04T01:01:46;5.60;;;1.30;;
1404;SDS011;697;51.114;6.542;2023-01-04T01:04:14;4.13;;;1.20;;
1404;SDS011;697;51.114;6.542;2023-01-04T01:06:43;6.00;;;1.13;;
1404;SDS011;697;51.114;6.542;2023-01-04T01:09:10;10.50;;;1.47;;
1404;SDS011;697;51.114;6.542;2023-01-04T01:11:37;2.53;;;1.30;;
1404;SDS011;697;51.114;6.542;2023-01-04T01:14:04;7.40;;;1.60;;
1404;SDS011;697;51.114;6.542;2023-01-04T01:16:32;4.80;;;1.43;;
1404;SDS011;697;51.114;6.542;2023-01-04T01:18:59;2.50;;;1.13;;
1404;SDS011;697;51.114;6.542;2023-01-04T01:21:26;4.50;;;1.30;;
1404;SDS011;697;51.114;6.542;2023-01-04T01:23:54;4.97;;;1.47;;
1404;SDS011;697;51.114;6.542;2023-01-04T01:26:23;2.30;;;1.40;;
1404;SDS011;697;51.114;6.542;2023-01-04T01:28:51;6.20;;;1.73;;
1404;SDS011;697;51.114;6.542;2023-01-04T01:31:20;2.90;;;1.93;;
1404;SDS011;697;51.114;6.542;2023-01-04T01:33:49;1.80;;;1.23;;
1404;SDS011;697;51.114;6.542;2023-01-04T01:36:18;5.27;;;1.50;;
1404;SDS011;697;51.114;6.542;2023-01-04T01:38:47;4.70;;;1.50;;
1404;SDS011;697;51.114;6.542;2023-01-04T01:41:16;3.50;;;1.30;;
1404;SDS011;697;51.114;6.542;2023-01-04T01:43:46;5.33;;;1.63;;
1404;SDS011;697;51.114;6.542;2023-01-04T01:46:15;7.73;;;1.40;;
1404;SDS011;697;51.114;6.542;2023-01-04T01:48:45;5.07;;;1.20;;
1404;SDS011;697;51.114;6.542;2023-01-04T01:51:11;3.40;;;1.10;;
1404;SDS011;697;51.114;6.542;2023-01-04T01:53:42;3.50;;;1.40;;
1404;SDS011;697;51.114;6.542;2023-01-04T01:56:11;4.93;;;1.30;;
1404;SDS011;697;51.114;6.542;2023-01-04T01:58:44;1.77;;;1.10;;
1404;SDS011;697;51.114;6.542;2023-01-04T02:01:17;4.17;;;1.40;;
1404;SDS011;697;51.114;6.542;2023-01-04T02:03:44;3.73;;;2.00;;
1404;SDS011;697;51.114;6.542;2023-01-04T02:06:12;3.13;;;1.67;;
1404;SDS011;697;51.114;6.542;2023-01-04T02:08:43;3.83;;;1.23;;
1404;SDS011;697;51.114;6.542;2023-01-04T02:11:10;1.77;;;1.60;;
1404;SDS011;697;51.114;6.542;2023-01-04T02:13:38;4.90;;;2.60;;
1404;SDS011;697;51.114;6.542;2023-01-04T02:16:28;3.40;;;1.17;;
1404;SDS011;697;51.114;6.542;2023-01-04T02:19:14;3.23;;;1.00;;
1404;SDS011;697;51.114;6.542;2023-01-04T02:21:56;3.63;;;1.40;;
1404;SDS011;697;51.114;6.542;2023-01-04T02:24:52;1.83;;;0.90;;
1404;SDS011;697;51.114;6.542;2023-01-04T02:27:47;4.43;;;0.97;;
1404;SDS011;697;51.114;6.542;2023-01-04T02:33:44;6.23;;;0.90;;
1404;SDS011;697;51.114;6.542;2023-01-04T02:36:17;2.13;;;0.90;;
1404;SDS011;697;51.114;6.542;2023-01-04T02:38:56;3.57;;;0.80;;
1404;SDS011;697;51.114;6.542;2023-01-04T02:41:31;2.70;;;1.50;;
1404;SDS011;697;51.114;6.542;2023-01-04T02:44:01;2.23;;;1.10;;
1404;SDS011;697;51.114;6.542;2023-01-04T02:46:52;3.50;;;1.33;;
1404;SDS011;697;51.114;6.542;2023-01-04T02:49:24;2.77;;;0.60;;
1404;SDS011;697;51.114;6.542;2023-01-04T02:52:09;3.40;;;0.77;;
1404;SDS011;697;51.114;6.542;2023-01-04T02:54:36;3.03;;;0.87;;
1404;SDS011;697;51.114;6.542;2023-01-04T02:57:09;4.30;;;0.73;;
1404;SDS011;697;51.114;6.542;2023-01-04T03:00:00;2.43;;;0.60;;
1404;SDS011;697;51.114;6.542;2023-01-04T03:02:43;2.60;;;0.80;;
1404;SDS011;697;51.114;6.542;2023-01-04T03:05:45;2.00;;;1.10;;
1404;SDS011;697;51.114;6.542;2023-01-04T03:08:36;2.90;;;0.70;;
1404;SDS011;697;51.114;6.542;2023-01-04T03:11:06;2.80;;;0.80;;
1404;SDS011;697;51.114;6.542;2023-01-04T03:13:55;2.93;;;0.60;;
1404;SDS011;697;51.114;6.542;2023-01-04T03:16:24;3.07;;;1.03;;
1404;SDS011;697;51.114;6.542;2023-01-04T03:18:52;4.03;;;0.80;;
1404;SDS011;697;51.114;6.542;2023-01-04T03:21:23;2.57;;;0.67;;
1404;SDS011;697;51.114;6.542;2023-01-04T03:23:54;3.03;;;0.90;;
1404;SDS011;697;51.114;6.542;2023-01-04T03:26:42;1.37;;;0.60;;
1404;SDS011;697;51.114;6.542;2023-01-04T03:29:31;1.70;;;0.83;;
1404;SDS011;697;51.114;6.542;2023-01-04T03:32:20;2.43;;;0.63;;
1404;SDS011;697;51.114;6.542;2023-01-04T03:35:15;3.70;;;0.50;;
1404;SDS011;697;51.114;6.542;2023-01-04T03:37:54;3.57;;;0.73;;
1404;SDS011;697;51.114;6.542;2023-01-04T03:40:39;0.97;;;0.83;;
1404;SDS011;697;51.114;6.542;2023-01-04T03:43:28;1.00;;;0.50;;
1404;SDS011;697;51.114;6.542;2023-01-04T03:46:20;2.30;;;0.60;;
1404;SDS011;697;51.114;6.542;2023-01-04T03:49:15;0.60;;;0.40;;
1404;SDS011;697;51.114;6.542;2023-01-04T03:51:46;1.60;;;0.50;;
1404;SDS011;697;51.114;6.542;2023-01-04T03:54:16;5.23;;;0.50;;
1404;SDS011;697;51.114;6.542;2023-01-04T03:56:47;1.67;;;0.70;;
1404;SDS011;697;51.114;6.542;2023-01-04T03:59:15;1.80;;;0.40;;
1404;SDS011;697;51.114;6.542;2023-01-04T04:01:42;2.07;;;0.53;;
1404;SDS011;697;51.114;6.542;2023-01-04T04:04:10;3.40;;;0.57;;
1404;SDS011;697;51.114;6.542;2023-01-04T04:06:54;2.53;;;0.63;;
1404;SDS011;697;51.114;6.542;2023-01-04T04:09:40;0.93;;;0.90;;
1404;SDS011;697;51.114;6.542;2023-01-04T04:12:06;0.80;;;0.73;;
1404;SDS011;697;51.114;6.542;2023-01-04T04:14:33;1.40;;;0.70;;
1404;SDS011;697;51.114;6.542;2023-01-04T04:17:00;4.53;;;0.80;;
1404;SDS011;697;51.114;6.542;2023-01-04T04:19:27;1.80;;;0.70;;
1404;SDS011;697;51.114;6.542;2023-01-04T04:21:54;0.77;;;0.77;;
1404;SDS011;697;51.114;6.542;2023-01-04T04:24:21;0.53;;;0.50;;
1404;SDS011;697;51.114;6.542;2023-01-04T04:26:51;1.10;;;0.70;;
1404;SDS011;697;51.114;6.542;2023-01-04T04:29:18;1.10;;;0.67;;
1404;SDS011;697;51.114;6.542;2023-01-04T04:31:45;3.90;;;0.50;;
1404;SDS011;697;51.114;6.542;2023-01-04T04:34:12;1.33;;;0.50;;
1404;SDS011;697;51.114;6.542;2023-01-04T04:36:39;0.63;;;0.40;;
1404;SDS011;697;51.114;6.542;2023-01-04T04:39:06;0.63;;;0.50;;
1404;SDS011;697;51.114;6.542;2023-01-04T04:41:32;2.93;;;0.73;;
1404;SDS011;697;51.114;6.542;2023-01-04T04:44:07;1.83;;;0.80;;
1404;SDS011;697;51.114;6.542;2023-01-04T04:46:35;3.33;;;0.50;;
1404;SDS011;697;51.114;6.542;2023-01-04T04:49:02;0.83;;;0.40;;
1404;SDS011;697;51.114;6.542;2023-01-04T04:51:29;1.10;;;0.53;;
1404;SDS011;697;51.114;6.542;2023-01-04T04:53:56;4.67;;;0.50;;
1404;SDS011;697;51.114;6.542;2023-01-04T04:56:23;0.60;;;0.40;;
1404;SDS011;697;51.114;6.542;2023-01-04T04:58:50;1.20;;;0.50;;
1404;SDS011;697;51.114;6.542;2023-01-04T05:01:18;1.17;;;0.50;;
1404;SDS011;697;51.114;6.542;2023-01-04T05:03:45;1.77;;;0.47;;
1404;SDS011;697;51.114;6.542;2023-01-04T05:06:12;0.80;;;0.30;;
1404;SDS011;697;51.114;6.542;2023-01-04T05:08:39;1.27;;;0.40;;
1404;SDS011;697;51.114;6.542;2023-01-04T05:11:06;2.90;;;0.50;;
1404;SDS011;697;51.114;6.542;2023-01-04T05:13:34;0.67;;;0.50;;
1404;SDS011;697;51.114;6.542;2023-01-04T05:16:00;1.83;;;0.50;;
1404;SDS011;697;51.114;6.542;2023-01-04T05:18:30;1.90;;;0.40;;
1404;SDS011;697;51.114;6.542;2023-01-04T05:20:56;1.67;;;0.70;;
1404;SDS011;697;51.114;6.542;2023-01-04T05:23:23;0.80;;;0.50;;
1404;SDS011;697;51.114;6.542;2023-01-04T05:25:50;0.53;;;0.40;;
1404;SDS011;697;51.114;6.542;2023-01-04T05:28:20;1.60;;;0.40;;
1404;SDS011;697;51.114;6.542;2023-01-04T05:30:47;1.03;;;0.40;;
1404;SDS011;697;51.114;6.542;2023-01-04T05:33:17;0.60;;;0.50;;
1404;SDS011;697;51.114;6.542;2023-01-04T05:35:46;0.50;;;0.30;;
1404;SDS011;697;51.114;6.542;2023-01-04T05:38:13;3.10;;;0.63;;
1404;SDS011;697;51.114;6.542;2023-01-04T05:40:40;1.53;;;0.60;;
1404;SDS011;697;51.114;6.542;2023-01-04T05:43:07;0.60;;;0.33;;
1404;SDS011;697;51.114;6.542;2023-01-04T05:45:34;0.67;;;0.40;;
1404;SDS011;697;51.114;6.542;2023-01-04T05:48:01;0.87;;;0.60;;
1404;SDS011;697;51.114;6.542;2023-01-04T05:50:28;0.70;;;0.30;;
1404;SDS011;697;51.114;6.542;2023-01-04T05:52:56;0.57;;;0.57;;
1404;SDS011;697;51.114;6.542;2023-01-04T05:55:24;1.37;;;0.50;;
1404;SDS011;697;51.114;6.542;2023-01-04T05:57:53;1.03;;;0.47;;
1404;SDS011;697;51.114;6.542;2023-01-04T06:00:20;1.60;;;0.53;;
1404;SDS011;697;51.114;6.542;2023-01-04T06:02:46;2.33;;;1.17;;
1404;SDS011;697;51.114;6.542;2023-01-04T06:05:13;2.53;;;0.43;;
1404;SDS011;697;51.114;6.542;2023-01-04T06:07:40;2.40;;;0.60;;
1404;SDS011;697;51.114;6.542;2023-01-04T06:10:09;1.00;;;0.40;;
1404;SDS011;697;51.114;6.542;2023-01-04T06:12:37;2.00;;;0.50;;
1404;SDS011;697;51.114;6.542;2023-01-04T06:15:05;0.40;;;0.30;;
1404;SDS011;697;51.114;6.542;2023-01-04T06:17:33;1.50;;;0.30;;
1404;SDS011;697;51.114;6.542;2023-01-04T06:20:00;1.10;;;0.67;;
1404;SDS011;697;51.114;6.542;2023-01-04T06:22:28;1.07;;;0.40;;
1404;SDS011;697;51.114;6.542;2023-01-04T06:24:56;1.17;;;0.57;;
1404;SDS011;697;51.114;6.542;2023-01-04T06:27:24;4.10;;;0.73;;
1404;SDS011;697;51.114;6.542;2023-01-04T06:29:51;2.30;;;0.50;;
1404;SDS011;697;51.114;6.542;2023-01-04T06:32:18;0.93;;;0.60;;
1404;SDS011;697;51.114;6.542;2023-01-04T06:34:45;2.20;;;0.50;;
1404;SDS011;697;51.114;6.542;2023-01-04T06:37:12;6.70;;;1.60;;
1404;SDS011;697;51.114;6.542;2023-01-04T06:39:39;5.60;;;0.60;;
1404;SDS011;697;51.114;6.542;2023-01-04T06:42:05;2.53;;;0.53;;
1404;SDS011;697;51.114;6.542;2023-01-04T06:44:54;0.67;;;0.60;;
1404;SDS011;697;51.114;6.542;2023-01-04T06:47:21;0.90;;;0.43;;
1404;SDS011;697;51.114;6.542;2023-01-04T06:49:48;1.37;;;0.60;;
1404;SDS011;697;51.114;6.542;2023-01-04T06:52:14;0.50;;;0.50;;
1404;SDS011;697;51.114;6.542;2023-01-04T06:54:41;0.57;;;0.30;;
1404;SDS011;697;51.114;6.542;2023-01-04T06:57:08;0.37;;;0.37;;
1404;SDS011;697;51.114;6.542;2023-01-04T06:59:34;0.53;;;0.50;;
1404;SDS011;697;51.114;6.542;2023-01-04T07:02:02;0.30;;;0.30;;
1404;SDS011;697;51.114;6.542;2023-01-04T07:04:29;1.13;;;0.40;;
1404;SDS011;697;51.114;6.542;2023-01-04T07:06:56;1.23;;;0.40;;
1404;SDS011;697;51.114;6.542;2023-01-04T07:09:22;1.60;;;0.90;;
1404;SDS011;697;51.114;6.542;2023-01-04T07:11:49;0.70;;;0.50;;
1404;SDS011;697;51.114;6.542;2023-01-04T07:14:16;1.10;;;0.60;;
1404;SDS011;697;51.114;6.542;2023-01-04T07:16:42;0.87;;;0.20;;
1404;SDS011;697;51.114;6.542;2023-01-04T07:19:10;1.33;;;0.30;;
1404;SDS011;697;51.114;6.542;2023-01-04T07:21:37;0.40;;;0.37;;
1404;SDS011;697;51.114;6.542;2023-01-04T07:24:04;2.17;;;0.50;;
1404;SDS011;697;51.114;6.542;2023-01-04T07:26:31;0.93;;;0.43;;
1404;SDS011;697;51.114;6.542;2023-01-04T07:28:58;3.00;;;0.50;;
1404;SDS011;697;51.114;6.542;2023-01-04T07:31:41;0.50;;;0.40;;
1404;SDS011;697;51.114;6.542;2023-01-04T07:34:08;1.00;;;0.50;;
1404;SDS011;697;51.114;6.542;2023-01-04T07:36:36;0.50;;;0.40;;
1404;SDS011;697;51.114;6.542;2023-01-04T07:39:04;0.77;;;0.43;;
1404;SDS011;697;51.114;6.542;2023-01-04T07:41:31;1.63;;;0.40;;
1404;SDS011;697;51.114;6.542;2023-01-04T07:43:58;0.40;;;0.40;;
1404;SDS011;697;51.114;6.542;2023-01-04T07:46:25;1.10;;;0.40;;
1404;SDS011;697;51.114;6.542;2023-01-04T07:48:52;0.70;;;0.40;;
1404;SDS011;697;51.114;6.542;2023-01-04T07:51:19;3.80;;;0.73;;
1404;SDS011;697;51.114;6.542;2023-01-04T07:53:47;2.03;;;0.47;;
1404;SDS011;697;51.114;6.542;2023-01-04T07:56:14;0.73;;;0.30;;
1404;SDS011;697;51.114;6.542;2023-01-04T07:58:40;1.07;;;0.70;;
1404;SDS011;697;51.114;6.542;2023-01-04T08:01:08;0.40;;;0.40;;
1404;SDS011;697;51.114;6.542;2023-01-04T08:03:36;1.80;;;0.40;;
1404;SDS011;697;51.114;6.542;2023-01-04T08:06:03;0.40;;;0.40;;
1404;SDS011;697;51.114;6.542;2023-01-04T08:08:31;1.50;;;0.50;;
1404;SDS011;697;51.114;6.542;2023-01-04T08:11:00;1.30;;;0.70;;
1404;SDS011;697;51.114;6.542;2023-01-04T08:13:27;1.90;;;0.60;;
1404;SDS011;697;51.114;6.542;2023-01-04T08:15:54;1.03;;;1.03;;
1404;SDS011;697;51.114;6.542;2023-01-04T08:18:21;0.93;;;0.50;;
1404;SDS011;697;51.114;6.542;2023-01-04T08:20:48;0.63;;;0.50;;
1404;SDS011;697;51.114;6.542;2023-01-04T08:23:15;1.27;;;0.40;;
1404;SDS011;697;51.114;6.542;2023-01-04T08:25:42;1.93;;;0.40;;
1404;SDS011;697;51.114;6.542;2023-01-04T08:28:10;1.10;;;0.60;;
1404;SDS011;697;51.114;6.542;2023-01-04T08:30:36;3.23;;;0.70;;
1404;SDS011;697;51.114;6.542;2023-01-04T08:33:11;0.70;;;0.40;;
1404;SDS011;697;51.114;6.542;2023-01-04T08:35:38;1.27;;;0.50;;
1404;SDS011;697;51.114;6.542;2023-01-04T08:38:05;3.90;;;0.60;;
1404;SDS011;697;51.114;6.542;2023-01-04T08:40:31;1.23;;;0.60;;
1404;SDS011;697;51.114;6.542;2023-01-04T08:42:58;1.10;;;0.77;;
1404;SDS011;697;51.114;6.542;2023-01-04T08:45:26;1.30;;;0.40;;
1404;SDS011;697;51.114;6.542;2023-01-04T08:47:53;1.33;;;0.50;;
1404;SDS011;697;51.114;6.542;2023-01-04T08:50:20;1.73;;;0.60;;
1404;SDS011;697;51.114;6.542;2023-01-04T08:52:46;2.83;;;0.60;;
1404;SDS011;697;51.114;6.542;2023-01-04T08:55:13;0.40;;;0.30;;
1404;SDS011;697;51.114;6.542;2023-01-04T08:57:41;0.93;;;0.40;;
1404;SDS011;697;51.114;6.542;2023-01-04T09:00:08;0.73;;;0.67;;
1404;SDS011;697;51.114;6.542;2023-01-04T09:02:37;1.63;;;0.60;;
1404;SDS011;697;51.114;6.542;2023-01-04T09:05:04;0.40;;;0.40;;
1404;SDS011;697;51.114;6.542;2023-01-04T09:07:31;0.63;;;0.50;;
1404;SDS011;697;51.114;6.542;2023-01-04T09:09:58;0.50;;;0.40;;
1404;SDS011;697;51.114;6.542;2023-01-04T09:12:25;1.17;;;0.50;;
1404;SDS011;697;51.114;6.542;2023-01-04T09:14:52;1.30;;;0.50;;
1404;SDS011;697;51.114;6.542;2023-01-04T09:17:18;0.40;;;0.33;;
1404;SDS011;697;51.114;6.542;2023-01-04T09:19:47;4.90;;;0.80;;
1404;SDS011;697;51.114;6.542;2023-01-04T09:22:13;2.20;;;0.80;;
1404;SDS011;697;51.114;6.542;2023-01-04T09:24:40;1.17;;;0.50;;
1404;SDS011;697;51.114;6.542;2023-01-04T09:27:07;0.70;;;0.50;;
1404;SDS011;697;51.114;6.542;2023-01-04T09:29:33;1.33;;;0.40;;
1404;SDS011;697;51.114;6.542;2023-01-04T09:32:00;1.17;;;0.40;;
1404;SDS011;697;51.114;6.542;2023-01-04T09:34:27;1.23;;;0.47;;
1404;SDS011;697;51.114;6.542;2023-01-04T09:36:55;0.60;;;0.43;;
1404;SDS011;697;51.114;6.542;2023-01-04T09:39:22;3.03;;;0.80;;
1404;SDS011;697;51.114;6.542;2023-01-04T09:41:54;2.83;;;0.40;;
1404;SDS011;697;51.114;6.542;2023-01-04T09:44:26;1.70;;;0.50;;
1404;SDS011;697;51.114;6.542;2023-01-04T09:47:02;0.70;;;0.47;;
1404;SDS011;697;51.114;6.542;2023-01-04T09:49:34;0.53;;;0.40;;
1404;SDS011;697;51.114;6.542;2023-01-04T09:52:09;5.20;;;0.60;;
1404;SDS011;697;51.114;6.542;2023-01-04T09:54:41;2.33;;;1.00;;
1404;SDS011;697;51.114;6.542;2023-01-04T09:57:13;0.93;;;0.50;;
1404;SDS011;697;51.114;6.542;2023-01-04T09:59:44;2.70;;;0.77;;
1404;SDS011;697;51.114;6.542;2023-01-04T10:02:16;1.27;;;0.47;;
1404;SDS011;697;51.114;6.542;2023-01-04T10:04:50;2.67;;;0.87;;
1404;SDS011;697;51.114;6.542;2023-01-04T10:07:20;1.33;;;0.50;;
1404;SDS011;697;51.114;6.542;2023-01-04T10:09:51;1.80;;;0.60;;
1404;SDS011;697;51.114;6.542;2023-01-04T10:15:10;1.50;;;0.53;;
1404;SDS011;697;51.114;6.542;2023-01-04T10:17:51;1.67;;;0.70;;
1404;SDS011;697;51.114;6.542;2023-01-04T10:20:30;0.80;;;0.67;;
1404;SDS011;697;51.114;6.542;2023-01-04T10:23:22;2.77;;;0.67;;
1404;SDS011;697;51.114;6.542;2023-01-04T10:26:10;0.70;;;0.60;;
1404;SDS011;697;51.114;6.542;2023-01-04T10:28:45;2.77;;;0.60;;
1404;SDS011;697;51.114;6.542;2023-01-04T10:31:23;0.87;;;0.57;;
1404;SDS011;697;51.114;6.542;2023-01-04T10:33:56;1.10;;;1.00;;
1404;SDS011;697;51.114;6.542;2023-01-04T10:36:30;0.93;;;0.50;;
1404;SDS011;697;51.114;6.542;2023-01-04T10:38:59;1.23;;;1.13;;
1404;SDS011;697;51.114;6.542;2023-01-04T10:41:30;3.43;;;0.90;;
1404;SDS011;697;51.114;6.542;2023-01-04T10:44:03;2.10;;;0.47;;
1404;SDS011;697;51.114;6.542;2023-01-04T10:46:39;2.30;;;0.87;;
1404;SDS011;697;51.114;6.542;2023-01-04T10:49:10;0.90;;;0.40;;
1404;SDS011;697;51.114;6.542;2023-01-04T10:51:43;2.23;;;0.60;;
1404;SDS011;697;51.114;6.542;2023-01-04T10:54:17;4.00;;;0.70;;
1404;SDS011;697;51.114;6.542;2023-01-04T10:56:50;2.30;;;1.00;;
1404;SDS011;697;51.114;6.542;2023-01-04T10:59:24;0.60;;;0.60;;
1404;SDS011;697;51.114;6.542;2023-01-04T11:01:55;2.40;;;0.80;;
1404;SDS011;697;51.114;6.542;2023-01-04T11:04:26;1.20;;;0.73;;
1404;SDS011;697;51.114;6.542;2023-01-04T11:06:58;2.90;;;1.20;;
1404;SDS011;697;51.114;6.542;2023-01-04T11:09:34;1.83;;;0.67;;
1404;SDS011;697;51.114;6.542;2023-01-04T11:12:05;1.03;;;0.70;;
1404;SDS011;697;51.114;6.542;2023-01-04T11:14:36;2.87;;;0.77;;
1404;SDS011;697;51.114;6.542;2023-01-04T11:17:03;0.63;;;0.60;;
1404;SDS011;697;51.114;6.542;2023-01-04T11:19:32;0.60;;;0.60;;
1404;SDS011;697;51.114;6.542;2023-01-04T11:22:00;0.57;;;0.57;;
1404;SDS011;697;51.114;6.542;2023-01-04T11:24:34;1.87;;;0.73;;
1404;SDS011;697;51.114;6.542;2023-01-04T11:27:03;0.57;;;0.50;;
1404;SDS011;697;51.114;6.542;2023-01-04T11:29:34;1.87;;;1.00;;
1404;SDS011;697;51.114;6.542;2023-01-04T11:32:10;2.20;;;0.53;;
1404;SDS011;697;51.114;6.542;2023-01-04T11:34:45;2.30;;;0.70;;
1404;SDS011;697;51.114;6.542;2023-01-04T11:37:25;2.20;;;0.80;;
1404;SDS011;697;51.114;6.542;2023-01-04T11:42:38;0.57;;;0.43;;
1404;SDS011;697;51.114;6.542;2023-01-04T11:45:04;2.20;;;0.90;;
1404;SDS011;697;51.114;6.542;2023-01-04T11:47:32;1.33;;;0.60;;
1404;SDS011;697;51.114;6.542;2023-01-04T11:49:58;1.67;;;0.60;;
1404;SDS011;697;51.114;6.542;2023-01-04T11:52:29;1.10;;;0.70;;
1404;SDS011;697;51.114;6.542;2023-01-04T11:57:48;2.07;;;0.80;;
1404;SDS011;697;51.114;6.542;2023-01-04T12:00:31;2.20;;;0.67;;
1404;SDS011;697;51.114;6.542;2023-01-04T12:03:08;1.03;;;0.70;;
1404;SDS011;697;51.114;6.542;2023-01-04T12:05:36;2.50;;;1.63;;
1404;SDS011;697;51.114;6.542;2023-01-04T12:08:03;0.93;;;0.73;;
1404;SDS011;697;51.114;6.542;2023-01-04T12:10:32;0.47;;;0.47;;
1404;SDS011;697;51.114;6.542;2023-01-04T12:12:59;1.00;;;0.70;;
1404;SDS011;697;51.114;6.542;2023-01-04T12:15:28;1.50;;;0.60;;
1404;SDS011;697;51.114;6.542;2023-01-04T12:18:01;0.60;;;0.50;;
1404;SDS011;697;51.114;6.542;2023-01-04T12:20:30;1.57;;;0.50;;
1404;SDS011;697;51.114;6.542;2023-01-04T12:22:57;1.00;;;0.50;;
1404;SDS011;697;51.114;6.542;2023-01-04T12:25:28;0.73;;;0.43;;
1404;SDS011;697;51.114;6.542;2023-01-04T12:28:01;1.17;;;0.40;;
1404;SDS011;697;51.114;6.542;2023-01-04T12:30:32;0.80;;;0.60;;
1404;SDS011;697;51.114;6.542;2023-01-04T12:36:03;0.63;;;0.63;;
1404;SDS011;697;51.114;6.542;2023-01-04T12:47:39;1.47;;;0.50;;
1404;SDS011;697;51.114;6.542;2023-01-04T12:50:27;2.63;;;0.53;;
1404;SDS011;697;51.114;6.542;2023-01-04T12:52:56;2.57;;;0.50;;
1404;SDS011;697;51.114;6.542;2023-01-04T12:55:26;0.50;;;0.40;;
1404;SDS011;697;51.114;6.542;2023-01-04T13:01:25;0.40;;;0.40;;
1404;SDS011;697;51.114;6.542;2023-01-04T13:03:56;2.30;;;0.40;;
1404;SDS011;697;51.114;6.542;2023-01-04T13:06:25;0.40;;;0.30;;
1404;SDS011;697;51.114;6.542;2023-01-04T13:08:54;0.50;;;0.50;;
1404;SDS011;697;51.114;6.542;2023-01-04T13:11:33;1.20;;;0.47;;
1404;SDS011;697;51.114;6.542;2023-01-04T13:14:11;0.40;;;0.30;;
1404;SDS011;697;51.114;6.542;2023-01-04T13:16:49;0.50;;;0.47;;
1404;SDS011;697;51.114;6.542;2023-01-04T13:19:29;0.63;;;0.40;;
1404;SDS011;697;51.114;6.542;2023-01-04T13:21:56;1.07;;;0.57;;
1404;SDS011;697;51.114;6.542;2023-01-04T13:24:24;0.80;;;0.47;;
1404;SDS011;697;51.114;6.542;2023-01-04T13:26:54;2.50;;;0.50;;
1404;SDS011;697;51.114;6.542;2023-01-04T13:29:22;0.40;;;0.30;;
1404;SDS011;697;51.114;6.542;2023-01-04T13:31:53;1.37;;;0.63;;
1404;SDS011;697;51.114;6.542;2023-01-04T13:34:23;0.40;;;0.40;;
1404;SDS011;697;51.114;6.542;2023-01-04T13:36:56;0.40;;;0.40;;
1404;SDS011;697;51.114;6.542;2023-01-04T13:39:33;0.70;;;0.70;;
1404;SDS011;697;51.114;6.542;2023-01-04T13:42:01;0.87;;;0.50;;
1404;SDS011;697;51.114;6.542;2023-01-04T13:47:34;0.60;;;0.50;;
1404;SDS011;697;51.114;6.542;2023-01-04T13:50:01;0.50;;;0.40;;
1404;SDS011;697;51.114;6.542;2023-01-04T13:52:29;0.60;;;0.30;;
1404;SDS011;697;51.114;6.542;2023-01-04T13:55:08;0.40;;;0.30;;
1404;SDS011;697;51.114;6.542;2023-01-04T13:57:36;0.40;;;0.30;;
1404;SDS011;697;51.114;6.542;2023-01-04T14:00:03;0.50;;;0.30;;
1404;SDS011;697;51.114;6.542;2023-01-04T14:02:31;0.47;;;0.40;;
1404;SDS011;697;51.114;6.542;2023-01-04T14:05:01;1.67;;;0.40;;
1404;SDS011;697;51.114;6.542;2023-01-04T14:07:28;0.50;;;0.40;;
1404;SDS011;697;51.114;6.542;2023-01-04T14:09:55;0.40;;;0.33;;
1404;SDS011;697;51.114;6.542;2023-01-04T14:12:25;0.50;;;0.30;;
1404;SDS011;697;51.114;6.542;2023-01-04T14:14:54;0.40;;;0.30;;
1404;SDS011;697;51.114;6.542;2023-01-04T14:20:33;0.53;;;0.40;;
1404;SDS011;697;51.114;6.542;2023-01-04T14:23:01;0.90;;;0.57;;
1404;SDS011;697;51.114;6.542;2023-01-04T14:25:30;0.30;;;0.30;;
1404;SDS011;697;51.114;6.542;2023-01-04T14:28:24;0.63;;;0.30;;
1404;SDS011;697;51.114;6.542;2023-01-04T14:33:56;1.30;;;0.43;;
1404;SDS011;697;51.114;6.542;2023-01-04T14:36:25;0.63;;;0.40;;
1404;SDS011;697;51.114;6.542;2023-01-04T14:38:56;1.07;;;0.50;;
1404;SDS011;697;51.114;6.542;2023-01-04T14:41:27;0.73;;;0.40;;
1404;SDS011;697;51.114;6.542;2023-01-04T14:44:11;0.50;;;0.43;;
1404;SDS011;697;51.114;6.542;2023-01-04T14:46:39;1.13;;;0.60;;
1404;SDS011;697;51.114;6.542;2023-01-04T14:49:07;1.10;;;0.40;;
1404;SDS011;697;51.114;6.542;2023-01-04T14:51:37;3.07;;;0.70;;
1404;SDS011;697;51.114;6.542;2023-01-04T14:54:06;0.83;;;0.60;;
1404;SDS011;697;51.114;6.542;2023-01-04T14:56:35;0.73;;;0.60;;
1404;SDS011;697;51.114;6.542;2023-01-04T14:59:01;1.43;;;0.50;;
1404;SDS011;697;51.114;6.542;2023-01-04T15:01:29;0.83;;;0.80;;
1404;SDS011;697;51.114;6.542;2023-01-04T15:03:56;1.30;;;0.50;;
1404;SDS011;697;51.114;6.542;2023-01-04T15:06:22;0.77;;;0.57;;
1404;SDS011;697;51.114;6.542;2023-01-04T15:08:50;3.00;;;0.50;;
1404;SDS011;697;51.114;6.542;2023-01-04T15:11:17;1.33;;;0.73;;
1404;SDS011;697;51.114;6.542;2023-01-04T15:13:44;0.60;;;0.40;;
1404;SDS011;697;51.114;6.542;2023-01-04T15:16:12;1.63;;;0.70;;
1404;SDS011;697;51.114;6.542;2023-01-04T15:18:41;0.60;;;0.50;;
1404;SDS011;697;51.114;6.542;2023-01-04T15:21:09;0.60;;;0.60;;
1404;SDS011;697;51.114;6.542;2023-01-04T15:23:36;2.23;;;0.97;;
1404;SDS011;697;51.114;6.542;2023-01-04T15:26:05;0.93;;;0.70;;
1404;SDS011;697;51.114;6.542;2023-01-04T15:28:32;3.43;;;0.80;;
1404;SDS011;697;51.114;6.542;2023-01-04T15:30:59;0.83;;;0.60;;
1404;SDS011;697;51.114;6.542;2023-01-04T15:33:26;0.97;;;0.77;;
1404;SDS011;697;51.114;6.542;2023-01-04T15:35:59;1.43;;;0.70;;
1404;SDS011;697;51.114;6.542;2023-01-04T15:38:26;1.13;;;0.40;;
1404;SDS011;697;51.114;6.542;2023-01-04T15:40:58;1.23;;;0.80;;
1404;SDS011;697;51.114;6.542;2023-01-04T15:43:27;1.43;;;0.60;;
1404;SDS011;697;51.114;6.542;2023-01-04T15:45:52;1.00;;;0.70;;
1404;SDS011;697;51.114;6.542;2023-01-04T15:48:19;0.87;;;0.57;;
1404;SDS011;697;51.114;6.542;2023-01-04T15:50:46;0.57;;;0.57;;
1404;SDS011;697;51.114;6.542;2023-01-04T15:53:13;0.90;;;0.43;;
1404;SDS011;697;51.114;6.542;2023-01-04T15:55:39;1.87;;;0.50;;
1404;SDS011;697;51.114;6.542;2023-01-04T15:58:06;0.43;;;0.43;;
1404;SDS011;697;51.114;6.542;2023-01-04T16:00:34;2.07;;;0.60;;
1404;SDS011;697;51.114;6.542;2023-01-04T16:03:02;0.50;;;0.50;;
1404;SDS011;697;51.114;6.542;2023-01-04T16:05:30;0.70;;;0.50;;
1404;SDS011;697;51.114;6.542;2023-01-04T16:07:56;0.70;;;0.70;;
1404;SDS011;697;51.114;6.542;2023-01-04T16:10:23;0.70;;;0.63;;
1404;SDS011;697;51.114;6.542;2023-01-04T16:12:51;1.10;;;1.10;;
1404;SDS011;697;51.114;6.542;2023-01-04T16:15:18;0.80;;;0.80;;
1404;SDS011;697;51.114;6.542;2023-01-04T16:17:47;2.90;;;1.10;;
1404;SDS011;697;51.114;6.542;2023-01-04T16:20:14;1.93;;;1.10;;
1404;SDS011;697;51.114;6.542;2023-01-04T16:22:42;1.40;;;1.20;;
1404;SDS011;697;51.114;6.542;2023-01-04T16:25:09;1.90;;;1.80;;